createdAt,value
2023-04-26T00:01:10.925Z,99129.63
2023-04-26T00:03:57.687Z,99100.03
2023-04-26T00:06:44.087Z,99084.44
2023-04-26T00:09:30.852Z,99135.41
2023-04-26T00:12:17.386Z,99132.78
2023-04-26T00:15:04.778Z,99129.28
2023-04-26T00:17:51.657Z,99103.97
2023-04-26T00:20:39.101Z,99078.78
2023-04-26T00:23:26.169Z,99117.72
2023-04-26T00:26:12.727Z,99071.97
2023-04-26T00:28:58.907Z,99151.53
2023-04-26T00:31:45.340Z,99158.47
2023-04-26T00:34:34.138Z,99147.88
2023-04-26T00:37:21.485Z,99132.34
2023-04-26T00:40:09.000Z,99117.53
2023-04-26T00:42:58.564Z,99108.19
2023-04-26T00:45:45.965Z,99142.47
2023-04-26T00:48:33.857Z,99141.41
2023-04-26T00:51:20.815Z,99131.69
2023-04-26T00:54:08.630Z,99123.50
2023-04-26T00:56:55.459Z,99138.84
2023-04-26T00:59:41.813Z,99142.91
2023-04-26T01:02:28.447Z,99130.50
2023-04-26T01:05:15.014Z,99160.38
2023-04-26T01:08:04.855Z,99121.19
2023-04-26T01:10:52.382Z,99158.31
2023-04-26T01:13:38.900Z,99142.59
2023-04-26T01:16:28.305Z,99099.16
2023-04-26T01:19:15.185Z,99111.91
2023-04-26T01:22:01.819Z,99122.22
2023-04-26T01:24:51.054Z,99148.97
2023-04-26T01:27:37.272Z,99124.56
2023-04-26T01:30:23.945Z,99166.16
2023-04-26T01:33:10.532Z,99108.75
2023-04-26T01:35:57.207Z,99122.59
2023-04-26T01:38:43.612Z,99147.72
2023-04-26T01:41:30.177Z,99125.41
2023-04-26T01:44:16.710Z,99116.69
2023-04-26T01:47:03.307Z,99159.44
2023-04-26T01:49:49.769Z,99133.47
2023-04-26T01:52:36.345Z,99134.97
2023-04-26T01:55:22.721Z,99150.03
2023-04-26T01:58:08.931Z,99159.75
2023-04-26T02:00:56.445Z,99120.97
2023-04-26T02:03:43.009Z,99151.06
2023-04-26T02:06:32.285Z,99155.50
2023-04-26T02:09:18.435Z,99102.88
2023-04-26T02:12:04.887Z,99133.31
2023-04-26T02:14:51.235Z,99118.06
2023-04-26T02:17:38.576Z,99111.84
2023-04-26T02:20:24.954Z,99131.06
2023-04-26T02:23:12.572Z,99121.81
2023-04-26T02:25:59.027Z,99134.97
2023-04-26T02:28:45.473Z,99121.03
2023-04-26T02:31:33.213Z,99153.00
2023-04-26T02:34:19.439Z,99133.84
2023-04-26T02:37:07.454Z,99133.94
2023-04-26T02:39:54.223Z,99157.19
2023-04-26T02:42:40.769Z,99129.97
2023-04-26T02:45:27.577Z,99077.94
2023-04-26T02:48:13.947Z,99134.56
2023-04-26T02:51:01.255Z,99139.59
2023-04-26T02:53:47.944Z,99131.50
2023-04-26T02:56:34.320Z,99139.38
2023-04-26T02:59:20.512Z,99133.78
2023-04-26T03:02:07.855Z,99140.34
2023-04-26T03:04:56.047Z,99126.31
2023-04-26T03:07:42.618Z,99156.28
2023-04-26T03:10:28.926Z,99158.66
2023-04-26T03:13:15.590Z,99120.41
2023-04-26T03:16:01.942Z,99146.38
2023-04-26T03:18:49.515Z,99160.75
2023-04-26T03:21:36.347Z,99119.75
2023-04-26T03:24:24.033Z,99167.56
2023-04-26T03:27:10.825Z,99125.41
2023-04-26T03:29:57.565Z,99100.72
2023-04-26T03:32:44.282Z,99157.31
2023-04-26T03:35:30.398Z,99156.75
2023-04-26T03:38:17.569Z,99101.63
2023-04-26T03:41:05.043Z,99151.72
2023-04-26T03:43:51.516Z,99136.53
2023-04-26T03:46:37.752Z,99132.25
2023-04-26T03:49:24.370Z,99107.25
2023-04-26T03:52:11.075Z,99091.59
2023-04-26T03:54:57.444Z,99149.88
2023-04-26T03:57:43.679Z,99141.31
2023-04-26T04:00:30.255Z,99152.69
2023-04-26T04:03:17.043Z,99163.22
2023-04-26T04:06:03.564Z,99160.88
2023-04-26T04:08:49.955Z,99137.56
2023-04-26T04:11:36.841Z,99154.91
2023-04-26T04:14:23.212Z,99154.06
2023-04-26T04:17:09.482Z,99130.78
2023-04-26T04:19:55.768Z,99123.97
2023-04-26T04:22:42.219Z,99145.50
2023-04-26T04:25:28.877Z,99156.78
2023-04-26T04:28:18.921Z,99162.09
2023-04-26T04:31:05.593Z,99158.72
2023-04-26T04:33:52.133Z,99139.59
2023-04-26T04:36:41.397Z,99145.06
2023-04-26T04:39:27.573Z,99157.91
2023-04-26T04:42:14.831Z,99167.44
2023-04-26T04:45:01.128Z,99128.66
2023-04-26T04:47:48.470Z,99158.81
2023-04-26T04:50:35.842Z,99142.63
2023-04-26T04:53:22.140Z,99149.56
2023-04-26T04:56:08.847Z,99132.16
2023-04-26T04:58:56.173Z,99178.19
2023-04-26T05:01:42.398Z,99150.81
2023-04-26T05:04:34.444Z,99191.31
2023-04-26T05:07:22.947Z,99163.56
2023-04-26T05:10:14.539Z,99192.78
2023-04-26T05:13:01.090Z,99195.28
2023-04-26T05:15:47.481Z,99178.97
2023-04-26T05:18:33.672Z,99177.88
2023-04-26T05:21:21.396Z,99203.63
2023-04-26T05:24:07.631Z,99165.41
2023-04-26T05:26:56.248Z,99192.69
2023-04-26T05:30:08.492Z,99186.78
2023-04-26T05:33:14.986Z,99177.81
2023-04-26T05:36:09.635Z,99212.88
2023-04-26T05:38:56.010Z,99192.34
2023-04-26T05:41:42.425Z,99220.88
2023-04-26T05:44:29.303Z,99192.47
2023-04-26T05:47:15.605Z,99187.38
2023-04-26T05:50:02.037Z,99222.09
2023-04-26T05:52:48.394Z,99224.88
2023-04-26T05:55:35.362Z,99232.13
2023-04-26T05:58:22.110Z,99211.63
2023-04-26T06:01:09.528Z,99195.41
2023-04-26T06:03:59.158Z,99239.63
2023-04-26T06:06:50.219Z,99226.81
2023-04-26T06:09:36.826Z,99231.13
2023-04-26T06:12:24.064Z,99230.19
2023-04-26T06:15:12.228Z,99232.06
2023-04-26T06:17:59.810Z,99216.59
2023-04-26T06:20:46.806Z,99235.66
2023-04-26T06:23:33.197Z,99225.66
2023-04-26T06:26:20.234Z,99249.38
2023-04-26T06:29:06.601Z,99247.09
2023-04-26T06:31:53.157Z,99202.88
2023-04-26T06:34:43.974Z,99224.28
2023-04-26T06:37:30.472Z,99251.38
2023-04-26T06:40:17.143Z,99210.88
2023-04-26T06:43:03.984Z,99238.69
2023-04-26T06:46:03.434Z,99237.94
2023-04-26T06:48:54.372Z,99200.72
2023-04-26T06:51:41.125Z,99222.22
2023-04-26T06:54:29.585Z,99213.41
2023-04-26T06:57:16.043Z,99252.22
2023-04-26T07:00:04.035Z,99219.13
2023-04-26T07:02:50.151Z,99237.91
2023-04-26T07:05:36.564Z,99243.91
2023-04-26T07:08:23.062Z,99192.91
2023-04-26T07:11:10.570Z,99247.38
2023-04-26T07:13:57.087Z,99237.88
2023-04-26T07:16:45.285Z,99186.00
2023-04-26T07:19:31.705Z,99222.34
2023-04-26T07:22:17.969Z,99226.81
2023-04-26T07:25:05.543Z,99228.50
2023-04-26T07:27:52.325Z,99204.31
2023-04-26T07:30:38.690Z,99219.97
2023-04-26T07:33:25.245Z,99166.50
2023-04-26T07:36:12.004Z,99221.84
2023-04-26T07:38:58.605Z,99220.97
2023-04-26T07:41:44.724Z,99212.09
2023-04-26T07:44:31.196Z,99225.22
2023-04-26T07:47:17.348Z,99221.72
2023-04-26T07:50:04.280Z,99214.06
2023-04-26T07:52:51.234Z,99227.97
2023-04-26T07:55:37.651Z,99198.78
2023-04-26T07:58:24.118Z,99218.66
2023-04-26T08:01:11.813Z,99200.66
2023-04-26T08:03:58.310Z,99220.56
2023-04-26T08:06:48.497Z,99205.94
2023-04-26T08:09:34.988Z,99218.75
2023-04-26T08:12:21.240Z,99210.16
2023-04-26T08:15:08.324Z,99195.53
2023-04-26T08:17:55.221Z,99217.97
2023-04-26T08:20:41.782Z,99188.75
2023-04-26T08:23:28.496Z,99232.00
2023-04-26T08:26:14.774Z,99174.13
2023-04-26T08:29:00.857Z,99190.63
2023-04-26T08:31:47.546Z,99228.66
2023-04-26T08:34:33.924Z,99235.59
2023-04-26T08:37:20.209Z,99204.59
2023-04-26T08:40:10.466Z,99229.63
2023-04-26T08:42:57.158Z,99226.16
2023-04-26T08:45:46.876Z,99229.59
2023-04-26T08:48:36.216Z,99223.56
2023-04-26T08:51:23.386Z,99227.03
2023-04-26T08:54:11.623Z,99196.81
2023-04-26T08:56:59.615Z,99227.06
2023-04-26T08:59:46.982Z,99221.00
2023-04-26T09:02:34.726Z,99187.34
2023-04-26T09:05:24.491Z,99211.44
2023-04-26T09:08:18.122Z,99217.41
2023-04-26T09:11:04.615Z,99183.84
2023-04-26T09:13:51.628Z,99182.06
2023-04-26T09:16:38.392Z,99213.09
2023-04-26T09:19:44.760Z,99201.88
2023-04-26T09:22:36.442Z,99200.03
2023-04-26T09:25:31.079Z,99203.47
2023-04-26T09:28:22.363Z,99191.66
2023-04-26T09:31:08.767Z,99142.28
2023-04-26T09:34:01.437Z,99170.50
2023-04-26T09:36:49.802Z,99196.75
2023-04-26T09:39:38.659Z,99191.19
2023-04-26T09:42:24.891Z,99157.13
2023-04-26T09:45:11.815Z,99156.00
2023-04-26T09:48:21.954Z,99192.13
2023-04-26T09:51:14.180Z,99173.13
2023-04-26T09:54:01.322Z,99173.06
2023-04-26T09:56:59.602Z,99190.81
2023-04-26T09:59:54.998Z,99184.56
2023-04-26T10:02:42.330Z,99160.38
2023-04-26T10:05:31.636Z,99169.75
2023-04-26T10:08:19.773Z,99174.53
2023-04-26T10:11:12.875Z,99149.59
2023-04-26T10:13:59.470Z,99177.09
2023-04-26T10:16:46.211Z,99160.53
2023-04-26T10:19:34.951Z,99162.22
2023-04-26T10:22:25.352Z,99153.00
2023-04-26T10:25:11.592Z,99175.44
2023-04-26T10:27:57.929Z,99117.59
2023-04-26T10:30:58.219Z,99146.97
2023-04-26T10:33:44.738Z,99136.75
2023-04-26T10:36:32.154Z,99117.84
2023-04-26T10:39:22.969Z,99141.47
2023-04-26T10:42:30.731Z,99148.53
2023-04-26T10:45:27.810Z,99135.91
2023-04-26T10:48:30.926Z,99145.50
2023-04-26T10:51:17.567Z,99113.13
2023-04-26T10:54:04.299Z,99122.94
2023-04-26T10:56:51.055Z,99146.47
2023-04-26T10:59:51.239Z,99146.94
2023-04-26T11:02:53.512Z,99139.78
2023-04-26T11:05:55.244Z,99112.25
2023-04-26T11:08:43.094Z,99112.66
2023-04-26T11:11:32.676Z,99135.91
2023-04-26T11:14:19.293Z,99148.78
2023-04-26T11:17:06.349Z,99130.31
2023-04-26T11:19:53.097Z,99105.75
2023-04-26T11:22:41.787Z,99128.19
2023-04-26T11:25:29.255Z,99120.00
2023-04-26T11:28:16.316Z,99106.03
2023-04-26T11:31:04.310Z,99112.78
2023-04-26T11:33:50.996Z,99101.88
2023-04-26T11:36:38.484Z,99095.47
2023-04-26T11:39:25.257Z,99089.41
2023-04-26T11:42:12.616Z,99089.19
2023-04-26T11:45:01.431Z,99069.78
2023-04-26T11:47:47.898Z,99081.06
2023-04-26T11:50:36.648Z,99061.81
2023-04-26T11:53:23.297Z,99047.50
2023-04-26T11:56:20.272Z,99079.84
2023-04-26T11:59:06.762Z,99082.81
2023-04-26T12:01:53.585Z,99063.44
2023-04-26T12:04:44.570Z,99081.19
2023-04-26T12:07:37.913Z,99082.69
2023-04-26T12:10:35.943Z,99087.00
2023-04-26T12:13:24.958Z,99060.13
2023-04-26T12:16:25.578Z,99031.94
2023-04-26T12:19:13.382Z,99075.28
2023-04-26T12:22:00.065Z,99041.66
2023-04-26T12:24:48.030Z,99064.41
2023-04-26T12:27:34.245Z,99028.34
2023-04-26T12:30:21.434Z,99071.22
2023-04-26T12:33:23.087Z,99049.31
2023-04-26T12:36:11.789Z,99072.13
2023-04-26T12:38:58.293Z,99050.47
2023-04-26T12:41:46.202Z,99051.84
2023-04-26T12:44:32.500Z,99057.94
2023-04-26T12:47:18.847Z,99055.69
2023-04-26T12:50:06.011Z,99047.19
2023-04-26T12:52:52.562Z,99028.88
2023-04-26T12:55:38.791Z,99032.44
2023-04-26T12:58:25.433Z,99059.13
2023-04-26T13:01:15.844Z,99058.47
2023-04-26T13:04:04.760Z,99038.63
2023-04-26T13:06:51.885Z,99039.28
2023-04-26T13:09:38.313Z,99048.94
2023-04-26T13:12:25.027Z,99027.16
2023-04-26T13:15:11.684Z,99045.09
2023-04-26T13:17:58.054Z,99028.56
2023-04-26T13:20:45.555Z,99027.91
2023-04-26T13:23:31.987Z,99039.28
2023-04-26T13:26:18.371Z,99007.56
2023-04-26T13:29:05.125Z,99032.03
2023-04-26T13:31:51.759Z,99010.25
2023-04-26T13:34:39.752Z,99037.19
2023-04-26T13:37:26.907Z,99003.53
2023-04-26T13:40:13.432Z,99055.22
2023-04-26T13:42:59.747Z,99045.19
2023-04-26T13:45:46.109Z,99043.50
2023-04-26T13:48:32.601Z,99033.81
2023-04-26T13:51:19.427Z,99027.00
2023-04-26T13:54:06.596Z,99021.91
2023-04-26T13:56:53.502Z,99042.47
2023-04-26T13:59:40.549Z,99022.72
2023-04-26T14:02:27.316Z,99021.53
2023-04-26T14:05:13.911Z,99022.03
2023-04-26T14:08:00.884Z,99017.88
2023-04-26T14:10:48.000Z,99040.09
2023-04-26T14:13:34.130Z,99013.84
2023-04-26T14:16:20.730Z,99033.13
2023-04-26T14:19:07.217Z,99010.31
2023-04-26T14:21:53.470Z,99032.06
2023-04-26T14:24:40.101Z,99004.00
2023-04-26T14:27:26.934Z,99010.41
2023-04-26T14:30:14.366Z,98982.25
2023-04-26T14:33:00.629Z,99025.16
2023-04-26T14:35:47.022Z,99003.63
2023-04-26T14:38:33.182Z,99003.81
2023-04-26T14:41:19.835Z,99002.34
2023-04-26T14:44:06.479Z,99026.81
2023-04-26T14:46:53.520Z,99019.44
2023-04-26T14:49:40.342Z,99001.06
2023-04-26T14:52:28.861Z,99006.00
2023-04-26T14:55:18.906Z,98993.53
2023-04-26T14:58:05.594Z,99018.47
2023-04-26T15:00:52.944Z,99027.25
2023-04-26T15:03:40.333Z,99005.53
2023-04-26T15:06:27.367Z,98992.66
2023-04-26T15:09:13.677Z,98994.31
2023-04-26T15:12:00.336Z,99014.63
2023-04-26T15:14:46.464Z,99001.91
2023-04-26T15:17:34.036Z,99007.03
2023-04-26T15:20:20.605Z,99002.56
2023-04-26T15:23:07.706Z,98984.63
2023-04-26T15:25:54.253Z,98982.13
2023-04-26T15:28:40.780Z,98993.41
2023-04-26T15:31:26.990Z,98998.75
2023-04-26T15:34:13.296Z,98990.38
2023-04-26T15:37:00.238Z,98998.31
2023-04-26T15:39:47.385Z,98999.16
2023-04-26T15:42:33.700Z,98988.81
2023-04-26T15:45:20.622Z,98939.72
2023-04-26T15:48:07.119Z,98984.47
2023-04-26T15:50:56.923Z,98970.63
2023-04-26T15:53:44.075Z,98967.53
2023-04-26T15:56:30.787Z,98968.16
2023-04-26T15:59:17.033Z,98975.06
2023-04-26T16:02:03.576Z,98976.91
2023-04-26T16:04:50.337Z,98945.34
2023-04-26T16:07:38.851Z,98968.59
2023-04-26T16:10:25.480Z,98991.25
2023-04-26T16:13:11.627Z,98983.72
2023-04-26T16:15:58.037Z,98959.63
2023-04-26T16:18:44.406Z,98955.25
2023-04-26T16:21:30.787Z,98959.56
2023-04-26T16:24:16.936Z,98991.63
2023-04-26T16:27:04.611Z,98979.81
2023-04-26T16:29:50.937Z,98967.06
2023-04-26T16:32:37.103Z,98937.78
2023-04-26T16:35:23.914Z,98965.34
2023-04-26T16:38:10.532Z,98960.38
2023-04-26T16:40:58.128Z,98990.63
2023-04-26T16:43:45.934Z,98958.78
2023-04-26T16:46:32.714Z,98984.66
2023-04-26T16:49:19.427Z,98962.38
2023-04-26T16:52:05.969Z,98972.72
2023-04-26T16:54:52.283Z,98953.91
2023-04-26T16:57:38.606Z,98960.81
2023-04-26T17:00:25.299Z,98985.00
2023-04-26T17:03:12.491Z,98995.31
2023-04-26T17:05:58.933Z,98973.03
2023-04-26T17:08:45.517Z,98992.00
2023-04-26T17:11:32.094Z,98973.13
2023-04-26T17:14:18.365Z,98997.19
2023-04-26T17:17:04.560Z,98981.69
2023-04-26T17:19:50.822Z,98996.28
2023-04-26T17:22:37.139Z,98992.63
2023-04-26T17:25:24.332Z,98974.44
2023-04-26T17:28:11.310Z,98971.84
2023-04-26T17:30:57.812Z,99009.63
2023-04-26T17:33:44.147Z,98983.66
2023-04-26T17:36:31.775Z,98985.44
2023-04-26T17:39:18.176Z,98991.59
2023-04-26T17:42:04.734Z,98974.44
2023-04-26T17:44:51.494Z,98996.94
2023-04-26T17:47:37.679Z,99017.66
2023-04-26T17:50:24.259Z,99004.81
2023-04-26T17:53:10.786Z,99028.06
2023-04-26T17:55:57.503Z,99019.56
2023-04-26T17:58:44.040Z,99022.25
2023-04-26T18:01:30.565Z,99005.06
2023-04-26T18:04:17.131Z,99021.56
2023-04-26T18:07:04.247Z,99030.22
2023-04-26T18:09:50.890Z,99021.66
2023-04-26T18:12:37.461Z,98994.94
2023-04-26T18:15:24.289Z,99018.28
2023-04-26T18:18:10.968Z,99030.31
2023-04-26T18:20:57.658Z,99030.34
2023-04-26T18:23:45.460Z,99032.91
2023-04-26T18:26:32.311Z,99013.09
2023-04-26T18:29:18.964Z,99024.31
2023-04-26T18:32:05.763Z,99044.16
2023-04-26T18:34:52.287Z,99049.31
2023-04-26T18:37:39.645Z,99025.16
2023-04-26T18:40:25.945Z,99048.41
2023-04-26T18:43:12.472Z,99038.88
2023-04-26T18:45:59.076Z,99056.13
2023-04-26T18:48:46.110Z,99068.16
2023-04-26T18:51:32.697Z,99049.13
2023-04-26T18:54:19.092Z,99063.78
2023-04-26T18:57:05.526Z,99013.66
2023-04-26T18:59:52.668Z,99068.81
2023-04-26T19:02:41.832Z,99035.03
2023-04-26T19:05:28.966Z,99072.97
2023-04-26T19:08:16.000Z,99062.47
2023-04-26T19:11:03.083Z,99069.34
2023-04-26T19:13:49.680Z,99082.22
2023-04-26T19:16:36.327Z,99055.31
2023-04-26T19:19:22.988Z,99093.19
2023-04-26T19:22:09.358Z,99049.97
2023-04-26T19:24:55.636Z,99081.00
2023-04-26T19:27:42.273Z,99099.94
2023-04-26T19:30:28.595Z,99100.75
2023-04-26T19:33:15.585Z,99091.16
2023-04-26T19:36:02.306Z,99083.38
2023-04-26T19:38:48.645Z,99085.00
2023-04-26T19:41:35.162Z,99127.34
2023-04-26T19:44:21.736Z,99097.09
2023-04-26T19:47:08.932Z,99127.34
2023-04-26T19:49:57.413Z,99108.31
2023-04-26T19:52:43.950Z,99121.19
2023-04-26T19:55:30.226Z,99058.09
2023-04-26T19:58:16.883Z,99125.53
2023-04-26T20:01:03.624Z,99103.91
2023-04-26T20:03:50.301Z,99116.81
2023-04-26T20:06:36.615Z,99085.59
2023-04-26T20:09:22.946Z,99133.16
2023-04-26T20:12:09.220Z,99090.75
2023-04-26T20:14:55.663Z,99120.91
2023-04-26T20:17:43.300Z,99097.56
2023-04-26T20:20:29.921Z,99115.75
2023-04-26T20:23:16.527Z,99126.09
2023-04-26T20:26:03.877Z,99100.50
2023-04-26T20:28:50.436Z,99112.53
2023-04-26T20:31:36.840Z,99105.31
2023-04-26T20:34:23.303Z,99136.09
2023-04-26T20:37:10.163Z,99078.91
2023-04-26T20:39:57.762Z,99128.78
2023-04-26T20:42:43.930Z,99133.88
2023-04-26T20:45:30.304Z,99110.47
2023-04-26T20:48:16.513Z,99123.38
2023-04-26T20:51:03.222Z,99094.81
2023-04-26T20:53:49.779Z,99138.06
2023-04-26T20:56:36.924Z,99113.84
2023-04-26T20:59:27.631Z,99117.22
2023-04-26T21:02:14.385Z,99114.59
2023-04-26T21:05:01.006Z,99146.53
2023-04-26T21:07:47.475Z,99139.63
2023-04-26T21:10:33.823Z,99129.44
2023-04-26T21:13:20.357Z,99098.75
2023-04-26T21:16:06.991Z,99136.66
2023-04-26T21:18:53.583Z,99085.81
2023-04-26T21:21:40.972Z,99103.72
2023-04-26T21:24:27.424Z,99129.50
2023-04-26T21:27:13.675Z,99106.00
2023-04-26T21:30:03.437Z,99111.09
2023-04-26T21:32:50.029Z,99108.41
2023-04-26T21:35:36.696Z,99088.47
2023-04-26T21:38:23.078Z,99108.31
2023-04-26T21:41:09.329Z,99090.03
2023-04-26T21:43:57.382Z,99127.47
2023-04-26T21:46:43.789Z,99085.19
2023-04-26T21:49:30.016Z,99105.00
2023-04-26T21:52:16.546Z,99117.91
2023-04-26T21:55:03.650Z,99130.09
2023-04-26T21:57:50.127Z,99160.25
2023-04-26T22:00:39.469Z,99156.72
2023-04-26T22:03:26.435Z,99121.34
2023-04-26T22:06:12.706Z,99122.22
2023-04-26T22:08:59.316Z,99153.34
2023-04-26T22:11:47.011Z,99092.13
2023-04-26T22:14:33.427Z,99139.66
2023-04-26T22:17:20.455Z,99154.19
2023-04-26T22:20:08.063Z,99143.06
2023-04-26T22:22:54.664Z,99122.22
2023-04-26T22:25:40.854Z,99155.06
2023-04-26T22:28:27.580Z,99130.66
2023-04-26T22:31:14.246Z,99155.06
2023-04-26T22:34:00.897Z,99140.53
2023-04-26T22:36:47.364Z,99115.56
2023-04-26T22:39:33.485Z,99149.16
2023-04-26T22:42:19.987Z,99149.84
2023-04-26T22:45:07.543Z,99123.63
2023-04-26T22:47:54.098Z,99154.19
2023-04-26T22:50:40.530Z,99160.03
2023-04-26T22:53:27.138Z,99162.50
2023-04-26T22:56:13.435Z,99157.16
2023-04-26T22:58:59.533Z,99166.59
2023-04-26T23:01:46.588Z,99138.13
2023-04-26T23:04:32.975Z,99163.91
2023-04-26T23:07:19.704Z,99162.97
2023-04-26T23:10:06.987Z,99155.19
2023-04-26T23:12:53.532Z,99143.88
2023-04-26T23:15:39.814Z,99171.53
2023-04-26T23:18:29.966Z,99159.41
2023-04-26T23:21:16.697Z,99158.75
2023-04-26T23:24:03.332Z,99158.53
2023-04-26T23:26:49.731Z,99153.19
2023-04-26T23:29:36.221Z,99133.31
2023-04-26T23:32:22.549Z,99143.50
2023-04-26T23:35:09.511Z,99148.66
2023-04-26T23:37:56.007Z,99101.78
2023-04-26T23:40:42.372Z,99177.75
2023-04-26T23:43:28.570Z,99170.94
2023-04-26T23:46:15.337Z,99128.44
2023-04-26T23:49:01.532Z,99168.31
2023-04-26T23:51:47.644Z,99159.53
2023-04-26T23:54:34.430Z,99151.47
2023-04-26T23:57:21.060Z,99169.94
